sensor_id;sensor_type;location;lat;lon;timestamp;P1;durP1;ratioP1;P2;durP2;ratioP2
75774;SDS011;64505;51.458;7.556;2023-07-22T00:00:45;12.27;;;6.00;;
75774;SDS011;64505;51.458;7.556;2023-07-22T00:02:47;9.75;;;5.32;;
75774;SDS011;64505;51.458;7.556;2023-07-22T00:04:49;10.00;;;5.50;;
75774;SDS011;64505;51.458;7.556;2023-07-22T00:06:50;9.55;;;5.18;;
75774;SDS011;64505;51.458;7.556;2023-07-22T00:08:52;8.93;;;5.07;;
75774;SDS011;64505;51.458;7.556;2023-07-22T00:10:55;10.30;;;5.45;;
75774;SDS011;64505;51.458;7.556;2023-07-22T00:12:56;8.93;;;5.47;;
75774;SDS011;64505;51.458;7.556;2023-07-22T00:14:57;9.25;;;5.35;;
75774;SDS011;64505;51.458;7.556;2023-07-22T00:16:59;9.25;;;5.07;;
75774;SDS011;64505;51.458;7.556;2023-07-22T00:19:00;9.10;;;5.03;;
75774;SDS011;64505;51.458;7.556;2023-07-22T00:21:03;10.93;;;4.97;;
75774;SDS011;64505;51.458;7.556;2023-07-22T00:23:04;11.80;;;5.40;;
75774;SDS011;64505;51.458;7.556;2023-07-22T00:25:09;10.70;;;5.10;;
75774;SDS011;64505;51.458;7.556;2023-07-22T00:27:12;9.77;;;5.28;;
75774;SDS011;64505;51.458;7.556;2023-07-22T00:29:13;9.63;;;5.65;;
75774;SDS011;64505;51.458;7.556;2023-07-22T00:31:15;10.95;;;5.90;;
75774;SDS011;64505;51.458;7.556;2023-07-22T00:33:17;11.57;;;5.75;;
75774;SDS011;64505;51.458;7.556;2023-07-22T00:35:18;9.35;;;5.13;;
75774;SDS011;64505;51.458;7.556;2023-07-22T00:37:20;10.27;;;5.18;;
75774;SDS011;64505;51.458;7.556;2023-07-22T00:39:21;11.50;;;5.32;;
75774;SDS011;64505;51.458;7.556;2023-07-22T00:41:23;11.90;;;5.43;;
75774;SDS011;64505;51.458;7.556;2023-07-22T00:43:24;10.07;;;5.68;;
75774;SDS011;64505;51.458;7.556;2023-07-22T00:45:27;8.25;;;4.80;;
75774;SDS011;64505;51.458;7.556;2023-07-22T00:47:28;10.32;;;5.32;;
75774;SDS011;64505;51.458;7.556;2023-07-22T00:49:30;10.63;;;5.25;;
75774;SDS011;64505;51.458;7.556;2023-07-22T00:51:32;10.50;;;5.22;;
75774;SDS011;64505;51.458;7.556;2023-07-22T00:53:33;10.68;;;5.13;;
75774;SDS011;64505;51.458;7.556;2023-07-22T00:55:35;12.38;;;5.25;;
75774;SDS011;64505;51.458;7.556;2023-07-22T00:57:41;9.90;;;5.30;;
75774;SDS011;64505;51.458;7.556;2023-07-22T00:59:43;10.38;;;5.60;;
75774;SDS011;64505;51.458;7.556;2023-07-22T01:01:44;9.80;;;5.03;;
75774;SDS011;64505;51.458;7.556;2023-07-22T01:03:46;9.73;;;5.30;;
75774;SDS011;64505;51.458;7.556;2023-07-22T01:05:47;10.32;;;5.68;;
75774;SDS011;64505;51.458;7.556;2023-07-22T01:07:50;10.90;;;5.85;;
75774;SDS011;64505;51.458;7.556;2023-07-22T01:09:55;9.68;;;5.68;;
75774;SDS011;64505;51.458;7.556;2023-07-22T01:11:58;10.57;;;5.90;;
75774;SDS011;64505;51.458;7.556;2023-07-22T01:13:59;11.85;;;5.90;;
75774;SDS011;64505;51.458;7.556;2023-07-22T01:16:01;12.27;;;6.03;;
75774;SDS011;64505;51.458;7.556;2023-07-22T01:18:02;10.95;;;5.30;;
75774;SDS011;64505;51.458;7.556;2023-07-22T01:20:05;12.15;;;5.93;;
75774;SDS011;64505;51.458;7.556;2023-07-22T01:22:07;10.70;;;5.50;;
75774;SDS011;64505;51.458;7.556;2023-07-22T01:24:09;12.05;;;6.45;;
75774;SDS011;64505;51.458;7.556;2023-07-22T01:26:11;10.43;;;6.07;;
75774;SDS011;64505;51.458;7.556;2023-07-22T01:28:12;12.05;;;5.95;;
75774;SDS011;64505;51.458;7.556;2023-07-22T01:30:14;10.55;;;6.45;;
75774;SDS011;64505;51.458;7.556;2023-07-22T01:32:15;10.63;;;6.07;;
75774;SDS011;64505;51.458;7.556;2023-07-22T01:34:18;11.10;;;5.93;;
75774;SDS011;64505;51.458;7.556;2023-07-22T01:36:19;10.15;;;5.72;;
75774;SDS011;64505;51.458;7.556;2023-07-22T01:38:21;11.23;;;5.82;;
75774;SDS011;64505;51.458;7.556;2023-07-22T01:40:24;10.77;;;5.65;;
75774;SDS011;64505;51.458;7.556;2023-07-22T01:42:26;14.45;;;6.97;;
75774;SDS011;64505;51.458;7.556;2023-07-22T01:44:27;12.13;;;6.32;;
75774;SDS011;64505;51.458;7.556;2023-07-22T01:46:29;10.98;;;6.25;;
75774;SDS011;64505;51.458;7.556;2023-07-22T01:48:31;11.90;;;5.97;;
75774;SDS011;64505;51.458;7.556;2023-07-22T01:50:33;13.40;;;5.82;;
75774;SDS011;64505;51.458;7.556;2023-07-22T01:52:34;12.05;;;6.32;;
75774;SDS011;64505;51.458;7.556;2023-07-22T01:54:36;11.02;;;6.15;;
75774;SDS011;64505;51.458;7.556;2023-07-22T01:56:38;9.88;;;5.57;;
75774;SDS011;64505;51.458;7.556;2023-07-22T01:58:40;13.07;;;6.07;;
75774;SDS011;64505;51.458;7.556;2023-07-22T02:00:41;12.45;;;6.13;;
75774;SDS011;64505;51.458;7.556;2023-07-22T02:02:43;11.00;;;6.07;;
75774;SDS011;64505;51.458;7.556;2023-07-22T02:04:45;12.40;;;6.63;;
75774;SDS011;64505;51.458;7.556;2023-07-22T02:06:47;12.93;;;6.15;;
75774;SDS011;64505;51.458;7.556;2023-07-22T02:08:49;11.90;;;5.95;;
75774;SDS011;64505;51.458;7.556;2023-07-22T02:10:51;12.73;;;6.65;;
75774;SDS011;64505;51.458;7.556;2023-07-22T02:12:52;12.80;;;6.78;;
75774;SDS011;64505;51.458;7.556;2023-07-22T02:14:54;11.60;;;5.50;;
75774;SDS011;64505;51.458;7.556;2023-07-22T02:16:55;11.55;;;5.90;;
75774;SDS011;64505;51.458;7.556;2023-07-22T02:18:57;10.90;;;6.28;;
75774;SDS011;64505;51.458;7.556;2023-07-22T02:20:58;10.75;;;5.72;;
75774;SDS011;64505;51.458;7.556;2023-07-22T02:23:00;11.88;;;5.70;;
75774;SDS011;64505;51.458;7.556;2023-07-22T02:25:01;12.25;;;5.68;;
75774;SDS011;64505;51.458;7.556;2023-07-22T02:27:02;12.40;;;6.47;;
75774;SDS011;64505;51.458;7.556;2023-07-22T02:29:04;11.43;;;6.03;;
75774;SDS011;64505;51.458;7.556;2023-07-22T02:31:05;12.43;;;6.05;;
75774;SDS011;64505;51.458;7.556;2023-07-22T02:33:08;11.35;;;5.90;;
75774;SDS011;64505;51.458;7.556;2023-07-22T02:35:10;10.88;;;6.20;;
75774;SDS011;64505;51.458;7.556;2023-07-22T02:37:12;11.70;;;5.85;;
75774;SDS011;64505;51.458;7.556;2023-07-22T02:39:13;12.35;;;6.28;;
75774;SDS011;64505;51.458;7.556;2023-07-22T02:41:15;11.45;;;6.15;;
75774;SDS011;64505;51.458;7.556;2023-07-22T02:43:16;12.43;;;6.07;;
75774;SDS011;64505;51.458;7.556;2023-07-22T02:45:18;12.00;;;6.15;;
75774;SDS011;64505;51.458;7.556;2023-07-22T02:47:19;11.05;;;5.72;;
75774;SDS011;64505;51.458;7.556;2023-07-22T02:49:21;10.68;;;5.93;;
75774;SDS011;64505;51.458;7.556;2023-07-22T02:51:22;12.77;;;6.60;;
75774;SDS011;64505;51.458;7.556;2023-07-22T02:53:24;11.48;;;6.30;;
75774;SDS011;64505;51.458;7.556;2023-07-22T02:55:25;12.73;;;6.10;;
75774;SDS011;64505;51.458;7.556;2023-07-22T02:57:27;11.73;;;6.00;;
75774;SDS011;64505;51.458;7.556;2023-07-22T02:59:28;11.70;;;6.00;;
75774;SDS011;64505;51.458;7.556;2023-07-22T03:01:30;12.23;;;6.35;;
75774;SDS011;64505;51.458;7.556;2023-07-22T03:03:32;12.60;;;6.20;;
75774;SDS011;64505;51.458;7.556;2023-07-22T03:05:34;13.65;;;6.53;;
75774;SDS011;64505;51.458;7.556;2023-07-22T03:07:36;11.98;;;6.47;;
75774;SDS011;64505;51.458;7.556;2023-07-22T03:09:39;12.23;;;6.28;;
75774;SDS011;64505;51.458;7.556;2023-07-22T03:11:40;13.65;;;6.10;;
75774;SDS011;64505;51.458;7.556;2023-07-22T03:13:42;11.20;;;6.07;;
75774;SDS011;64505;51.458;7.556;2023-07-22T03:15:43;13.27;;;6.35;;
75774;SDS011;64505;51.458;7.556;2023-07-22T03:17:45;12.32;;;6.30;;
75774;SDS011;64505;51.458;7.556;2023-07-22T03:19:46;15.45;;;6.63;;
75774;SDS011;64505;51.458;7.556;2023-07-22T03:21:50;12.13;;;6.35;;
75774;SDS011;64505;51.458;7.556;2023-07-22T03:23:52;12.65;;;6.18;;
75774;SDS011;64505;51.458;7.556;2023-07-22T03:25:53;12.63;;;5.93;;
75774;SDS011;64505;51.458;7.556;2023-07-22T03:27:54;12.05;;;5.93;;
75774;SDS011;64505;51.458;7.556;2023-07-22T03:29:56;11.25;;;6.22;;
75774;SDS011;64505;51.458;7.556;2023-07-22T03:31:57;13.65;;;6.97;;
75774;SDS011;64505;51.458;7.556;2023-07-22T03:34:01;11.77;;;6.60;;
75774;SDS011;64505;51.458;7.556;2023-07-22T03:36:02;13.00;;;6.70;;
75774;SDS011;64505;51.458;7.556;2023-07-22T03:38:04;12.32;;;5.97;;
75774;SDS011;64505;51.458;7.556;2023-07-22T03:40:06;11.23;;;6.07;;
75774;SDS011;64505;51.458;7.556;2023-07-22T03:42:12;11.85;;;6.28;;
75774;SDS011;64505;51.458;7.556;2023-07-22T03:44:13;14.15;;;6.22;;
75774;SDS011;64505;51.458;7.556;2023-07-22T03:46:15;12.27;;;6.28;;
75774;SDS011;64505;51.458;7.556;2023-07-22T03:48:16;12.15;;;5.70;;
75774;SDS011;64505;51.458;7.556;2023-07-22T03:50:18;12.18;;;6.60;;
75774;SDS011;64505;51.458;7.556;2023-07-22T03:52:20;12.38;;;6.40;;
75774;SDS011;64505;51.458;7.556;2023-07-22T03:54:21;11.07;;;5.95;;
75774;SDS011;64505;51.458;7.556;2023-07-22T03:56:23;10.45;;;6.05;;
75774;SDS011;64505;51.458;7.556;2023-07-22T03:58:27;12.02;;;5.72;;
75774;SDS011;64505;51.458;7.556;2023-07-22T04:00:30;11.82;;;5.85;;
75774;SDS011;64505;51.458;7.556;2023-07-22T04:02:32;12.30;;;6.25;;
75774;SDS011;64505;51.458;7.556;2023-07-22T04:04:33;11.93;;;6.32;;
75774;SDS011;64505;51.458;7.556;2023-07-22T04:06:35;11.65;;;5.95;;
75774;SDS011;64505;51.458;7.556;2023-07-22T04:08:36;13.38;;;5.82;;
75774;SDS011;64505;51.458;7.556;2023-07-22T04:10:38;9.93;;;5.47;;
75774;SDS011;64505;51.458;7.556;2023-07-22T04:12:40;11.90;;;6.45;;
75774;SDS011;64505;51.458;7.556;2023-07-22T04:14:43;11.20;;;6.25;;
75774;SDS011;64505;51.458;7.556;2023-07-22T04:16:45;10.10;;;5.65;;
75774;SDS011;64505;51.458;7.556;2023-07-22T04:18:46;12.05;;;5.80;;
75774;SDS011;64505;51.458;7.556;2023-07-22T04:20:48;12.77;;;6.05;;
75774;SDS011;64505;51.458;7.556;2023-07-22T04:22:49;11.25;;;5.50;;
75774;SDS011;64505;51.458;7.556;2023-07-22T04:24:50;9.63;;;5.18;;
75774;SDS011;64505;51.458;7.556;2023-07-22T04:26:52;10.68;;;5.90;;
75774;SDS011;64505;51.458;7.556;2023-07-22T04:28:54;11.15;;;5.85;;
75774;SDS011;64505;51.458;7.556;2023-07-22T04:30:56;11.65;;;6.55;;
75774;SDS011;64505;51.458;7.556;2023-07-22T04:32:59;10.90;;;6.55;;
75774;SDS011;64505;51.458;7.556;2023-07-22T04:35:03;11.43;;;5.72;;
75774;SDS011;64505;51.458;7.556;2023-07-22T04:37:04;11.75;;;6.13;;
75774;SDS011;64505;51.458;7.556;2023-07-22T04:39:06;11.32;;;6.18;;
75774;SDS011;64505;51.458;7.556;2023-07-22T04:41:08;12.40;;;6.50;;
75774;SDS011;64505;51.458;7.556;2023-07-22T04:43:11;11.85;;;6.00;;
75774;SDS011;64505;51.458;7.556;2023-07-22T04:45:13;11.82;;;6.22;;
75774;SDS011;64505;51.458;7.556;2023-07-22T04:47:15;10.52;;;5.35;;
75774;SDS011;64505;51.458;7.556;2023-07-22T04:49:17;12.15;;;6.65;;
75774;SDS011;64505;51.458;7.556;2023-07-22T04:51:19;11.32;;;5.90;;
75774;SDS011;64505;51.458;7.556;2023-07-22T04:53:21;11.98;;;6.97;;
75774;SDS011;64505;51.458;7.556;2023-07-22T04:55:22;15.07;;;5.95;;
75774;SDS011;64505;51.458;7.556;2023-07-22T04:57:24;10.60;;;5.78;;
75774;SDS011;64505;51.458;7.556;2023-07-22T04:59:25;9.95;;;5.25;;
75774;SDS011;64505;51.458;7.556;2023-07-22T05:01:26;10.38;;;5.72;;
75774;SDS011;64505;51.458;7.556;2023-07-22T05:03:29;13.30;;;6.47;;
75774;SDS011;64505;51.458;7.556;2023-07-22T05:05:31;12.05;;;5.95;;
75774;SDS011;64505;51.458;7.556;2023-07-22T05:07:33;12.13;;;6.05;;
75774;SDS011;64505;51.458;7.556;2023-07-22T05:09:36;12.70;;;5.95;;
75774;SDS011;64505;51.458;7.556;2023-07-22T05:11:38;13.30;;;5.85;;
75774;SDS011;64505;51.458;7.556;2023-07-22T05:13:39;13.50;;;6.35;;
75774;SDS011;64505;51.458;7.556;2023-07-22T05:15:40;12.68;;;6.50;;
75774;SDS011;64505;51.458;7.556;2023-07-22T05:17:42;12.45;;;6.85;;
75774;SDS011;64505;51.458;7.556;2023-07-22T05:19:43;11.07;;;6.22;;
75774;SDS011;64505;51.458;7.556;2023-07-22T05:21:45;11.73;;;6.55;;
75774;SDS011;64505;51.458;7.556;2023-07-22T05:23:47;14.40;;;6.38;;
75774;SDS011;64505;51.458;7.556;2023-07-22T05:25:52;10.75;;;5.93;;
75774;SDS011;64505;51.458;7.556;2023-07-22T05:27:54;10.10;;;5.32;;
75774;SDS011;64505;51.458;7.556;2023-07-22T05:29:56;14.32;;;6.20;;
75774;SDS011;64505;51.458;7.556;2023-07-22T05:31:57;11.02;;;5.82;;
75774;SDS011;64505;51.458;7.556;2023-07-22T05:33:59;11.90;;;6.00;;
75774;SDS011;64505;51.458;7.556;2023-07-22T05:36:00;11.38;;;6.20;;
75774;SDS011;64505;51.458;7.556;2023-07-22T05:38:02;10.98;;;5.68;;
75774;SDS011;64505;51.458;7.556;2023-07-22T05:40:05;11.10;;;6.30;;
75774;SDS011;64505;51.458;7.556;2023-07-22T05:42:08;13.98;;;6.32;;
75774;SDS011;64505;51.458;7.556;2023-07-22T05:44:10;13.02;;;5.93;;
75774;SDS011;64505;51.458;7.556;2023-07-22T05:46:11;10.82;;;6.05;;
75774;SDS011;64505;51.458;7.556;2023-07-22T05:48:12;13.70;;;6.40;;
75774;SDS011;64505;51.458;7.556;2023-07-22T05:50:14;11.10;;;5.95;;
75774;SDS011;64505;51.458;7.556;2023-07-22T05:52:15;11.45;;;6.03;;
75774;SDS011;64505;51.458;7.556;2023-07-22T05:54:18;10.32;;;5.15;;
75774;SDS011;64505;51.458;7.556;2023-07-22T05:56:19;11.88;;;5.82;;
75774;SDS011;64505;51.458;7.556;2023-07-22T05:58:21;12.77;;;6.30;;
75774;SDS011;64505;51.458;7.556;2023-07-22T06:00:22;15.15;;;6.07;;
75774;SDS011;64505;51.458;7.556;2023-07-22T06:02:23;11.45;;;6.05;;
75774;SDS011;64505;51.458;7.556;2023-07-22T06:04:25;10.85;;;5.88;;
75774;SDS011;64505;51.458;7.556;2023-07-22T06:06:27;10.80;;;5.20;;
75774;SDS011;64505;51.458;7.556;2023-07-22T06:08:29;11.50;;;5.55;;
75774;SDS011;64505;51.458;7.556;2023-07-22T06:10:31;9.65;;;5.32;;
75774;SDS011;64505;51.458;7.556;2023-07-22T06:12:32;11.15;;;5.47;;
75774;SDS011;64505;51.458;7.556;2023-07-22T06:14:34;10.55;;;5.28;;
75774;SDS011;64505;51.458;7.556;2023-07-22T06:16:35;8.88;;;4.97;;
75774;SDS011;64505;51.458;7.556;2023-07-22T06:18:37;10.95;;;5.43;;
75774;SDS011;64505;51.458;7.556;2023-07-22T06:20:38;9.75;;;5.07;;
75774;SDS011;64505;51.458;7.556;2023-07-22T06:22:40;11.82;;;5.05;;
75774;SDS011;64505;51.458;7.556;2023-07-22T06:24:42;10.55;;;4.88;;
75774;SDS011;64505;51.458;7.556;2023-07-22T06:26:43;9.35;;;5.15;;
75774;SDS011;64505;51.458;7.556;2023-07-22T06:28:45;10.80;;;4.63;;
75774;SDS011;64505;51.458;7.556;2023-07-22T06:30:46;8.57;;;5.38;;
75774;SDS011;64505;51.458;7.556;2023-07-22T06:32:48;10.43;;;4.80;;
75774;SDS011;64505;51.458;7.556;2023-07-22T06:34:50;8.93;;;4.97;;
75774;SDS011;64505;51.458;7.556;2023-07-22T06:36:51;10.05;;;4.80;;
75774;SDS011;64505;51.458;7.556;2023-07-22T06:38:52;11.43;;;4.90;;
75774;SDS011;64505;51.458;7.556;2023-07-22T06:40:55;10.18;;;5.50;;
75774;SDS011;64505;51.458;7.556;2023-07-22T06:42:58;8.32;;;4.18;;
75774;SDS011;64505;51.458;7.556;2023-07-22T06:45:00;9.13;;;4.43;;
75774;SDS011;64505;51.458;7.556;2023-07-22T06:47:01;10.23;;;4.68;;
75774;SDS011;64505;51.458;7.556;2023-07-22T06:49:02;9.18;;;4.70;;
75774;SDS011;64505;51.458;7.556;2023-07-22T06:51:04;8.35;;;4.55;;
75774;SDS011;64505;51.458;7.556;2023-07-22T06:53:05;10.00;;;5.45;;
75774;SDS011;64505;51.458;7.556;2023-07-22T06:55:07;9.80;;;4.95;;
75774;SDS011;64505;51.458;7.556;2023-07-22T06:57:08;9.48;;;4.78;;
75774;SDS011;64505;51.458;7.556;2023-07-22T06:59:10;9.30;;;4.72;;
75774;SDS011;64505;51.458;7.556;2023-07-22T07:01:11;9.13;;;4.45;;
75774;SDS011;64505;51.458;7.556;2023-07-22T07:03:13;9.52;;;4.57;;
75774;SDS011;64505;51.458;7.556;2023-07-22T07:05:14;8.65;;;4.60;;
75774;SDS011;64505;51.458;7.556;2023-07-22T07:07:18;11.82;;;5.38;;
75774;SDS011;64505;51.458;7.556;2023-07-22T07:09:19;9.77;;;4.55;;
75774;SDS011;64505;51.458;7.556;2023-07-22T07:11:21;9.63;;;4.85;;
75774;SDS011;64505;51.458;7.556;2023-07-22T07:13:22;10.05;;;4.95;;
75774;SDS011;64505;51.458;7.556;2023-07-22T07:15:25;10.55;;;4.80;;
75774;SDS011;64505;51.458;7.556;2023-07-22T07:17:26;8.93;;;4.78;;
75774;SDS011;64505;51.458;7.556;2023-07-22T07:19:28;14.20;;;6.05;;
75774;SDS011;64505;51.458;7.556;2023-07-22T07:21:30;7.75;;;4.35;;
75774;SDS011;64505;51.458;7.556;2023-07-22T07:23:31;9.63;;;4.82;;
75774;SDS011;64505;51.458;7.556;2023-07-22T07:25:33;12.35;;;5.35;;
75774;SDS011;64505;51.458;7.556;2023-07-22T07:27:34;9.85;;;4.43;;
75774;SDS011;64505;51.458;7.556;2023-07-22T07:29:35;9.13;;;4.55;;
75774;SDS011;64505;51.458;7.556;2023-07-22T07:31:40;10.18;;;4.95;;
75774;SDS011;64505;51.458;7.556;2023-07-22T07:33:41;10.20;;;5.35;;
75774;SDS011;64505;51.458;7.556;2023-07-22T07:35:45;9.32;;;5.25;;
75774;SDS011;64505;51.458;7.556;2023-07-22T07:37:47;7.72;;;4.63;;
75774;SDS011;64505;51.458;7.556;2023-07-22T07:39:49;9.38;;;5.03;;
75774;SDS011;64505;51.458;7.556;2023-07-22T07:41:50;8.38;;;4.13;;
75774;SDS011;64505;51.458;7.556;2023-07-22T07:43:52;8.52;;;4.60;;
75774;SDS011;64505;51.458;7.556;2023-07-22T07:50:20;9.50;;;4.70;;
75774;SDS011;64505;51.458;7.556;2023-07-22T07:52:22;10.95;;;4.45;;
75774;SDS011;64505;51.458;7.556;2023-07-22T07:54:23;10.70;;;4.75;;
75774;SDS011;64505;51.458;7.556;2023-07-22T07:56:25;7.97;;;4.55;;
75774;SDS011;64505;51.458;7.556;2023-07-22T07:58:27;9.25;;;5.13;;
75774;SDS011;64505;51.458;7.556;2023-07-22T08:00:29;10.15;;;4.72;;
75774;SDS011;64505;51.458;7.556;2023-07-22T08:02:30;10.05;;;4.88;;
75774;SDS011;64505;51.458;7.556;2023-07-22T08:04:32;9.20;;;4.63;;
75774;SDS011;64505;51.458;7.556;2023-07-22T08:06:33;10.25;;;5.43;;
75774;SDS011;64505;51.458;7.556;2023-07-22T08:08:36;10.05;;;5.22;;
75774;SDS011;64505;51.458;7.556;2023-07-22T08:10:37;10.88;;;5.78;;
75774;SDS011;64505;51.458;7.556;2023-07-22T08:12:40;10.35;;;4.85;;
75774;SDS011;64505;51.458;7.556;2023-07-22T08:14:41;10.73;;;5.50;;
75774;SDS011;64505;51.458;7.556;2023-07-22T08:16:43;9.93;;;4.95;;
75774;SDS011;64505;51.458;7.556;2023-07-22T08:18:45;9.10;;;5.07;;
75774;SDS011;64505;51.458;7.556;2023-07-22T08:20:48;10.27;;;4.80;;
75774;SDS011;64505;51.458;7.556;2023-07-22T08:22:49;11.43;;;5.47;;
75774;SDS011;64505;51.458;7.556;2023-07-22T08:24:51;12.05;;;5.50;;
75774;SDS011;64505;51.458;7.556;2023-07-22T08:26:52;9.48;;;5.25;;
75774;SDS011;64505;51.458;7.556;2023-07-22T08:28:54;9.20;;;5.15;;
75774;SDS011;64505;51.458;7.556;2023-07-22T08:30:56;8.52;;;4.80;;
75774;SDS011;64505;51.458;7.556;2023-07-22T08:32:58;9.30;;;5.32;;
75774;SDS011;64505;51.458;7.556;2023-07-22T08:34:59;11.00;;;5.72;;
75774;SDS011;64505;51.458;7.556;2023-07-22T08:37:01;9.65;;;5.63;;
75774;SDS011;64505;51.458;7.556;2023-07-22T08:39:02;9.45;;;5.22;;
75774;SDS011;64505;51.458;7.556;2023-07-22T08:41:05;10.80;;;5.50;;
75774;SDS011;64505;51.458;7.556;2023-07-22T08:43:07;8.73;;;4.88;;
75774;SDS011;64505;51.458;7.556;2023-07-22T08:45:10;8.82;;;4.88;;
75774;SDS011;64505;51.458;7.556;2023-07-22T08:47:15;10.70;;;5.35;;
75774;SDS011;64505;51.458;7.556;2023-07-22T08:49:17;10.15;;;5.10;;
75774;SDS011;64505;51.458;7.556;2023-07-22T08:51:20;8.57;;;4.88;;
75774;SDS011;64505;51.458;7.556;2023-07-22T08:53:24;7.50;;;4.28;;
75774;SDS011;64505;51.458;7.556;2023-07-22T08:55:26;9.73;;;4.60;;
75774;SDS011;64505;51.458;7.556;2023-07-22T08:57:29;10.45;;;4.95;;
75774;SDS011;64505;51.458;7.556;2023-07-22T08:59:31;8.30;;;5.28;;
75774;SDS011;64505;51.458;7.556;2023-07-22T09:01:34;9.30;;;4.60;;
75774;SDS011;64505;51.458;7.556;2023-07-22T09:03:38;8.55;;;5.03;;
75774;SDS011;64505;51.458;7.556;2023-07-22T09:05:41;8.35;;;4.13;;
75774;SDS011;64505;51.458;7.556;2023-07-22T09:07:43;10.73;;;5.18;;
75774;SDS011;64505;51.458;7.556;2023-07-22T09:09:45;8.60;;;4.80;;
75774;SDS011;64505;51.458;7.556;2023-07-22T09:11:47;8.52;;;4.32;;
75774;SDS011;64505;51.458;7.556;2023-07-22T09:13:49;8.07;;;4.50;;
75774;SDS011;64505;51.458;7.556;2023-07-22T09:15:53;8.20;;;4.40;;
75774;SDS011;64505;51.458;7.556;2023-07-22T09:17:58;9.05;;;4.88;;
75774;SDS011;64505;51.458;7.556;2023-07-22T09:19:59;7.78;;;4.45;;
75774;SDS011;64505;51.458;7.556;2023-07-22T09:22:01;8.68;;;4.30;;
75774;SDS011;64505;51.458;7.556;2023-07-22T09:24:18;9.48;;;4.70;;
75774;SDS011;64505;51.458;7.556;2023-07-22T09:26:22;10.20;;;5.07;;
75774;SDS011;64505;51.458;7.556;2023-07-22T09:28:24;9.20;;;4.43;;
75774;SDS011;64505;51.458;7.556;2023-07-22T09:32:35;9.40;;;5.00;;
75774;SDS011;64505;51.458;7.556;2023-07-22T09:34:38;7.35;;;4.35;;
75774;SDS011;64505;51.458;7.556;2023-07-22T09:37:00;8.40;;;4.60;;
75774;SDS011;64505;51.458;7.556;2023-07-22T09:39:02;8.93;;;4.55;;
75774;SDS011;64505;51.458;7.556;2023-07-22T09:41:05;8.95;;;4.75;;
75774;SDS011;64505;51.458;7.556;2023-07-22T09:43:09;9.88;;;4.45;;
75774;SDS011;64505;51.458;7.556;2023-07-22T09:45:13;7.90;;;4.45;;
75774;SDS011;64505;51.458;7.556;2023-07-22T09:47:15;9.15;;;4.55;;
75774;SDS011;64505;51.458;7.556;2023-07-22T09:49:17;10.50;;;4.80;;
75774;SDS011;64505;51.458;7.556;2023-07-22T09:51:19;6.80;;;4.60;;
75774;SDS011;64505;51.458;7.556;2023-07-22T09:53:21;8.45;;;4.82;;
75774;SDS011;64505;51.458;7.556;2023-07-22T09:55:23;10.30;;;4.10;;
75774;SDS011;64505;51.458;7.556;2023-07-22T09:57:26;9.48;;;4.20;;
75774;SDS011;64505;51.458;7.556;2023-07-22T09:59:28;7.15;;;3.92;;
75774;SDS011;64505;51.458;7.556;2023-07-22T10:01:31;7.57;;;3.97;;
75774;SDS011;64505;51.458;7.556;2023-07-22T10:03:33;8.95;;;4.13;;
75774;SDS011;64505;51.458;7.556;2023-07-22T10:05:38;7.43;;;3.92;;
75774;SDS011;64505;51.458;7.556;2023-07-22T10:07:42;6.80;;;3.20;;
75774;SDS011;64505;51.458;7.556;2023-07-22T10:09:45;6.72;;;4.10;;
75774;SDS011;64505;51.458;7.556;2023-07-22T10:11:47;8.23;;;3.97;;
75774;SDS011;64505;51.458;7.556;2023-07-22T10:13:49;7.60;;;4.00;;
75774;SDS011;64505;51.458;7.556;2023-07-22T10:15:51;7.25;;;4.35;;
75774;SDS011;64505;51.458;7.556;2023-07-22T10:17:53;8.00;;;4.22;;
75774;SDS011;64505;51.458;7.556;2023-07-22T10:19:56;7.65;;;4.15;;
75774;SDS011;64505;51.458;7.556;2023-07-22T10:21:58;8.50;;;4.35;;
75774;SDS011;64505;51.458;7.556;2023-07-22T10:24:01;7.07;;;4.28;;
75774;SDS011;64505;51.458;7.556;2023-07-22T10:26:04;7.85;;;4.10;;
75774;SDS011;64505;51.458;7.556;2023-07-22T10:28:06;8.15;;;4.07;;
75774;SDS011;64505;51.458;7.556;2023-07-22T10:30:09;7.97;;;4.53;;
75774;SDS011;64505;51.458;7.556;2023-07-22T10:32:11;7.65;;;4.45;;
75774;SDS011;64505;51.458;7.556;2023-07-22T10:34:13;7.93;;;4.53;;
75774;SDS011;64505;51.458;7.556;2023-07-22T10:36:16;9.35;;;4.28;;
75774;SDS011;64505;51.458;7.556;2023-07-22T10:38:18;8.52;;;4.38;;
75774;SDS011;64505;51.458;7.556;2023-07-22T10:40:26;7.22;;;4.35;;
75774;SDS011;64505;51.458;7.556;2023-07-22T10:42:31;8.02;;;4.53;;
75774;SDS011;64505;51.458;7.556;2023-07-22T10:44:36;6.80;;;4.20;;
75774;SDS011;64505;51.458;7.556;2023-07-22T10:46:39;10.18;;;4.18;;
75774;SDS011;64505;51.458;7.556;2023-07-22T10:48:44;7.45;;;4.00;;
75774;SDS011;64505;51.458;7.556;2023-07-22T10:50:47;8.27;;;3.60;;
75774;SDS011;64505;51.458;7.556;2023-07-22T10:52:55;6.05;;;3.75;;
75774;SDS011;64505;51.458;7.556;2023-07-22T10:55:01;6.63;;;3.97;;
75774;SDS011;64505;51.458;7.556;2023-07-22T10:57:03;9.73;;;3.75;;
75774;SDS011;64505;51.458;7.556;2023-07-22T10:59:26;6.45;;;3.70;;
75774;SDS011;64505;51.458;7.556;2023-07-22T11:01:33;5.57;;;3.60;;
75774;SDS011;64505;51.458;7.556;2023-07-22T11:03:53;6.00;;;3.75;;
75774;SDS011;64505;51.458;7.556;2023-07-22T11:06:16;7.60;;;3.47;;
75774;SDS011;64505;51.458;7.556;2023-07-22T11:08:40;6.22;;;3.28;;
75774;SDS011;64505;51.458;7.556;2023-07-22T11:10:54;6.78;;;3.58;;
75774;SDS011;64505;51.458;7.556;2023-07-22T11:12:56;7.43;;;3.38;;
75774;SDS011;64505;51.458;7.556;2023-07-22T11:15:03;6.47;;;3.58;;
75774;SDS011;64505;51.458;7.556;2023-07-22T11:17:07;5.40;;;3.47;;
75774;SDS011;64505;51.458;7.556;2023-07-22T11:19:09;5.70;;;3.22;;
75774;SDS011;64505;51.458;7.556;2023-07-22T11:21:11;7.03;;;3.58;;
75774;SDS011;64505;51.458;7.556;2023-07-22T11:23:13;6.80;;;3.70;;
75774;SDS011;64505;51.458;7.556;2023-07-22T11:25:18;6.20;;;3.13;;
75774;SDS011;64505;51.458;7.556;2023-07-22T11:27:20;6.72;;;3.60;;
75774;SDS011;64505;51.458;7.556;2023-07-22T11:29:21;6.38;;;3.60;;
75774;SDS011;64505;51.458;7.556;2023-07-22T11:31:30;7.35;;;3.60;;
75774;SDS011;64505;51.458;7.556;2023-07-22T11:33:41;6.57;;;3.45;;
75774;SDS011;64505;51.458;7.556;2023-07-22T11:35:45;6.32;;;3.15;;
75774;SDS011;64505;51.458;7.556;2023-07-22T11:37:47;4.93;;;3.03;;
75774;SDS011;64505;51.458;7.556;2023-07-22T11:39:48;7.80;;;3.42;;
75774;SDS011;64505;51.458;7.556;2023-07-22T11:41:50;6.40;;;3.35;;
75774;SDS011;64505;51.458;7.556;2023-07-22T11:43:52;6.63;;;3.22;;
75774;SDS011;64505;51.458;7.556;2023-07-22T11:45:54;6.55;;;2.97;;
75774;SDS011;64505;51.458;7.556;2023-07-22T11:47:56;5.80;;;3.08;;
75774;SDS011;64505;51.458;7.556;2023-07-22T11:49:57;7.53;;;2.85;;
75774;SDS011;64505;51.458;7.556;2023-07-22T11:52:06;5.90;;;3.00;;
75774;SDS011;64505;51.458;7.556;2023-07-22T11:56:17;5.78;;;3.28;;
75774;SDS011;64505;51.458;7.556;2023-07-22T11:58:26;7.22;;;3.08;;
75774;SDS011;64505;51.458;7.556;2023-07-22T12:00:27;6.22;;;2.78;;
75774;SDS011;64505;51.458;7.556;2023-07-22T12:02:29;5.43;;;2.65;;
75774;SDS011;64505;51.458;7.556;2023-07-22T12:04:33;5.10;;;2.80;;
75774;SDS011;64505;51.458;7.556;2023-07-22T12:06:37;4.85;;;2.25;;
75774;SDS011;64505;51.458;7.556;2023-07-22T12:08:48;4.30;;;2.17;;
75774;SDS011;64505;51.458;7.556;2023-07-22T12:10:55;9.00;;;2.65;;
75774;SDS011;64505;51.458;7.556;2023-07-22T12:13:00;4.85;;;2.40;;
75774;SDS011;64505;51.458;7.556;2023-07-22T12:15:09;4.78;;;2.20;;
75774;SDS011;64505;51.458;7.556;2023-07-22T12:17:17;5.15;;;2.50;;
75774;SDS011;64505;51.458;7.556;2023-07-22T12:19:19;4.45;;;2.10;;
75774;SDS011;64505;51.458;7.556;2023-07-22T12:21:20;5.25;;;2.60;;